sensor_id;sensor_type;location;lat;lon;timestamp;P1;durP1;ratioP1;P2;durP2;ratioP2
27925;SDS011;15267;47.838;12.128;2023-04-01T00:00:28;6.63;;;0.70;;
27925;SDS011;15267;47.838;12.128;2023-04-01T00:02:54;2.47;;;0.60;;
27925;SDS011;15267;47.838;12.128;2023-04-01T00:05:20;1.75;;;0.60;;
27925;SDS011;15267;47.838;12.128;2023-04-01T00:07:47;1.40;;;0.50;;
27925;SDS011;15267;47.838;12.128;2023-04-01T00:10:13;2.42;;;0.82;;
27925;SDS011;15267;47.838;12.128;2023-04-01T00:12:39;3.08;;;0.80;;
27925;SDS011;15267;47.838;12.128;2023-04-01T00:15:06;2.53;;;0.60;;
27925;SDS011;15267;47.838;12.128;2023-04-01T00:17:33;2.13;;;0.82;;
27925;SDS011;15267;47.838;12.128;2023-04-01T00:19:59;1.75;;;0.70;;
27925;SDS011;15267;47.838;12.128;2023-04-01T00:22:25;1.77;;;0.52;;
27925;SDS011;15267;47.838;12.128;2023-04-01T00:24:51;2.90;;;0.70;;
27925;SDS011;15267;47.838;12.128;2023-04-01T00:27:17;1.58;;;0.60;;
27925;SDS011;15267;47.838;12.128;2023-04-01T00:29:44;2.13;;;0.70;;
27925;SDS011;15267;47.838;12.128;2023-04-01T00:32:11;2.53;;;0.63;;
27925;SDS011;15267;47.838;12.128;2023-04-01T00:34:37;2.05;;;0.75;;
27925;SDS011;15267;47.838;12.128;2023-04-01T00:37:04;2.40;;;0.63;;
27925;SDS011;15267;47.838;12.128;2023-04-01T00:39:31;3.13;;;0.80;;
27925;SDS011;15267;47.838;12.128;2023-04-01T00:41:57;3.30;;;0.80;;
27925;SDS011;15267;47.838;12.128;2023-04-01T00:44:25;2.72;;;0.70;;
27925;SDS011;15267;47.838;12.128;2023-04-01T00:46:51;1.55;;;0.50;;
27925;SDS011;15267;47.838;12.128;2023-04-01T00:49:17;3.63;;;0.82;;
27925;SDS011;15267;47.838;12.128;2023-04-01T00:51:45;2.78;;;0.90;;
27925;SDS011;15267;47.838;12.128;2023-04-01T00:54:13;0.88;;;0.52;;
27925;SDS011;15267;47.838;12.128;2023-04-01T00:56:41;2.78;;;0.80;;
27925;SDS011;15267;47.838;12.128;2023-04-01T00:59:11;3.78;;;0.80;;
27925;SDS011;15267;47.838;12.128;2023-04-01T01:01:39;2.17;;;0.60;;
27925;SDS011;15267;47.838;12.128;2023-04-01T01:04:05;2.30;;;0.55;;
27925;SDS011;15267;47.838;12.128;2023-04-01T01:06:50;2.17;;;0.95;;
27925;SDS011;15267;47.838;12.128;2023-04-01T01:14:34;3.40;;;0.73;;
27925;SDS011;15267;47.838;12.128;2023-04-01T01:17:06;1.70;;;0.60;;
27925;SDS011;15267;47.838;12.128;2023-04-01T01:27:15;3.38;;;0.60;;
27925;SDS011;15267;47.838;12.128;2023-04-01T01:34:54;2.33;;;0.70;;
27925;SDS011;15267;47.838;12.128;2023-04-01T01:37:22;2.72;;;0.80;;
27925;SDS011;15267;47.838;12.128;2023-04-01T01:39:51;2.10;;;0.60;;
27925;SDS011;15267;47.838;12.128;2023-04-01T01:42:18;3.35;;;0.82;;
27925;SDS011;15267;47.838;12.128;2023-04-01T01:44:46;1.98;;;1.13;;
27925;SDS011;15267;47.838;12.128;2023-04-01T01:47:14;2.85;;;0.93;;
27925;SDS011;15267;47.838;12.128;2023-04-01T01:49:41;1.67;;;0.60;;
27925;SDS011;15267;47.838;12.128;2023-04-01T01:52:08;3.08;;;0.90;;
27925;SDS011;15267;47.838;12.128;2023-04-01T01:54:34;4.13;;;0.80;;
27925;SDS011;15267;47.838;12.128;2023-04-01T01:57:04;2.10;;;0.98;;
27925;SDS011;15267;47.838;12.128;2023-04-01T01:59:32;3.28;;;0.82;;
27925;SDS011;15267;47.838;12.128;2023-04-01T02:01:58;2.38;;;1.20;;
27925;SDS011;15267;47.838;12.128;2023-04-01T02:04:25;2.75;;;1.50;;
27925;SDS011;15267;47.838;12.128;2023-04-01T02:06:59;2.90;;;1.33;;
27925;SDS011;15267;47.838;12.128;2023-04-01T02:09:27;5.95;;;1.60;;
27925;SDS011;15267;47.838;12.128;2023-04-01T02:11:59;3.53;;;1.45;;
27925;SDS011;15267;47.838;12.128;2023-04-01T02:14:47;2.60;;;1.30;;
27925;SDS011;15267;47.838;12.128;2023-04-01T02:17:14;4.00;;;1.00;;
27925;SDS011;15267;47.838;12.128;2023-04-01T02:19:48;2.78;;;1.05;;
27925;SDS011;15267;47.838;12.128;2023-04-01T02:22:20;2.47;;;0.90;;
27925;SDS011;15267;47.838;12.128;2023-04-01T02:24:46;2.22;;;0.85;;
27925;SDS011;15267;47.838;12.128;2023-04-01T02:27:14;2.50;;;0.68;;
27925;SDS011;15267;47.838;12.128;2023-04-01T02:29:40;4.68;;;0.90;;
27925;SDS011;15267;47.838;12.128;2023-04-01T02:32:06;3.15;;;1.15;;
27925;SDS011;15267;47.838;12.128;2023-04-01T02:34:33;2.33;;;0.90;;
27925;SDS011;15267;47.838;12.128;2023-04-01T02:36:59;1.83;;;1.17;;
27925;SDS011;15267;47.838;12.128;2023-04-01T02:39:25;2.53;;;1.20;;
27925;SDS011;15267;47.838;12.128;2023-04-01T02:41:51;3.08;;;0.80;;
27925;SDS011;15267;47.838;12.128;2023-04-01T02:44:17;3.60;;;0.90;;
27925;SDS011;15267;47.838;12.128;2023-04-01T02:46:43;3.38;;;0.95;;
27925;SDS011;15267;47.838;12.128;2023-04-01T02:49:09;2.28;;;0.98;;
27925;SDS011;15267;47.838;12.128;2023-04-01T02:51:35;4.03;;;1.08;;
27925;SDS011;15267;47.838;12.128;2023-04-01T02:54:02;3.38;;;0.90;;
27925;SDS011;15267;47.838;12.128;2023-04-01T02:56:28;2.67;;;0.80;;
27925;SDS011;15267;47.838;12.128;2023-04-01T02:58:54;1.85;;;0.80;;
27925;SDS011;15267;47.838;12.128;2023-04-01T03:01:20;2.00;;;0.70;;
27925;SDS011;15267;47.838;12.128;2023-04-01T03:03:46;1.85;;;0.75;;
27925;SDS011;15267;47.838;12.128;2023-04-01T03:06:13;1.80;;;0.60;;
27925;SDS011;15267;47.838;12.128;2023-04-01T03:08:39;2.03;;;0.90;;
27925;SDS011;15267;47.838;12.128;2023-04-01T03:11:05;1.55;;;0.55;;
27925;SDS011;15267;47.838;12.128;2023-04-01T03:13:32;2.05;;;0.50;;
27925;SDS011;15267;47.838;12.128;2023-04-01T03:15:58;2.13;;;0.55;;
27925;SDS011;15267;47.838;12.128;2023-04-01T03:18:24;1.67;;;0.50;;
27925;SDS011;15267;47.838;12.128;2023-04-01T03:20:50;2.97;;;0.63;;
27925;SDS011;15267;47.838;12.128;2023-04-01T03:23:16;1.90;;;0.70;;
27925;SDS011;15267;47.838;12.128;2023-04-01T03:25:44;3.15;;;0.70;;
27925;SDS011;15267;47.838;12.128;2023-04-01T03:28:10;1.10;;;0.50;;
27925;SDS011;15267;47.838;12.128;2023-04-01T03:30:37;1.17;;;0.40;;
27925;SDS011;15267;47.838;12.128;2023-04-01T03:33:03;1.55;;;0.50;;
27925;SDS011;15267;47.838;12.128;2023-04-01T03:35:29;2.10;;;0.60;;
27925;SDS011;15267;47.838;12.128;2023-04-01T03:37:55;3.40;;;0.47;;
27925;SDS011;15267;47.838;12.128;2023-04-01T03:40:21;1.00;;;0.50;;
27925;SDS011;15267;47.838;12.128;2023-04-01T03:42:47;1.17;;;0.40;;
27925;SDS011;15267;47.838;12.128;2023-04-01T03:45:13;2.67;;;0.55;;
27925;SDS011;15267;47.838;12.128;2023-04-01T03:47:39;0.80;;;0.30;;
27925;SDS011;15267;47.838;12.128;2023-04-01T03:50:06;1.13;;;0.35;;
27925;SDS011;15267;47.838;12.128;2023-04-01T03:52:32;0.80;;;0.30;;
27925;SDS011;15267;47.838;12.128;2023-04-01T03:54:58;1.02;;;0.32;;
27925;SDS011;15267;47.838;12.128;2023-04-01T03:57:24;0.60;;;0.30;;
27925;SDS011;15267;47.838;12.128;2023-04-01T03:59:51;0.65;;;0.30;;
27925;SDS011;15267;47.838;12.128;2023-04-01T04:02:17;0.43;;;0.30;;
27925;SDS011;15267;47.838;12.128;2023-04-01T04:04:43;0.65;;;0.30;;
27925;SDS011;15267;47.838;12.128;2023-04-01T04:07:09;0.32;;;0.20;;
27925;SDS011;15267;47.838;12.128;2023-04-01T04:09:35;0.70;;;0.32;;
27925;SDS011;15267;47.838;12.128;2023-04-01T04:12:01;0.85;;;0.32;;
27925;SDS011;15267;47.838;12.128;2023-04-01T04:14:27;0.63;;;0.35;;
27925;SDS011;15267;47.838;12.128;2023-04-01T04:16:53;1.38;;;0.40;;
27925;SDS011;15267;47.838;12.128;2023-04-01T04:19:19;0.80;;;0.30;;
27925;SDS011;15267;47.838;12.128;2023-04-01T04:21:45;0.75;;;0.30;;
27925;SDS011;15267;47.838;12.128;2023-04-01T04:24:11;0.90;;;0.30;;
27925;SDS011;15267;47.838;12.128;2023-04-01T04:26:37;1.17;;;0.35;;
27925;SDS011;15267;47.838;12.128;2023-04-01T04:29:03;0.55;;;0.38;;
27925;SDS011;15267;47.838;12.128;2023-04-01T04:31:29;0.77;;;0.28;;
27925;SDS011;15267;47.838;12.128;2023-04-01T04:33:55;0.75;;;0.40;;
27925;SDS011;15267;47.838;12.128;2023-04-01T04:36:21;0.88;;;0.35;;
27925;SDS011;15267;47.838;12.128;2023-04-01T04:38:47;1.05;;;0.50;;
27925;SDS011;15267;47.838;12.128;2023-04-01T04:41:14;0.90;;;0.40;;
27925;SDS011;15267;47.838;12.128;2023-04-01T04:43:41;1.13;;;0.40;;
27925;SDS011;15267;47.838;12.128;2023-04-01T04:46:08;0.20;;;0.20;;
27925;SDS011;15267;47.838;12.128;2023-04-01T04:48:34;1.15;;;0.35;;
27925;SDS011;15267;47.838;12.128;2023-04-01T04:51:01;0.93;;;0.30;;
27925;SDS011;15267;47.838;12.128;2023-04-01T04:53:27;0.68;;;0.30;;
27925;SDS011;15267;47.838;12.128;2023-04-01T04:55:53;0.50;;;0.30;;
27925;SDS011;15267;47.838;12.128;2023-04-01T04:58:19;1.45;;;0.40;;
27925;SDS011;15267;47.838;12.128;2023-04-01T05:00:45;1.48;;;0.30;;
27925;SDS011;15267;47.838;12.128;2023-04-01T05:03:11;0.80;;;0.35;;
27925;SDS011;15267;47.838;12.128;2023-04-01T05:05:38;0.32;;;0.30;;
27925;SDS011;15267;47.838;12.128;2023-04-01T05:08:04;0.80;;;0.43;;
27925;SDS011;15267;47.838;12.128;2023-04-01T05:10:30;0.95;;;0.40;;
27925;SDS011;15267;47.838;12.128;2023-04-01T05:12:56;0.55;;;0.35;;
27925;SDS011;15267;47.838;12.128;2023-04-01T05:15:22;0.88;;;0.30;;
27925;SDS011;15267;47.838;12.128;2023-04-01T05:17:48;0.90;;;0.47;;
27925;SDS011;15267;47.838;12.128;2023-04-01T05:20:14;1.40;;;0.45;;
27925;SDS011;15267;47.838;12.128;2023-04-01T05:22:41;2.30;;;0.50;;
27925;SDS011;15267;47.838;12.128;2023-04-01T05:25:07;1.08;;;0.70;;
27925;SDS011;15267;47.838;12.128;2023-04-01T05:27:33;1.10;;;0.73;;
27925;SDS011;15267;47.838;12.128;2023-04-01T05:29:59;2.13;;;1.00;;
27925;SDS011;15267;47.838;12.128;2023-04-01T05:32:25;2.38;;;1.40;;
27925;SDS011;15267;47.838;12.128;2023-04-01T05:34:51;3.53;;;1.50;;
27925;SDS011;15267;47.838;12.128;2023-04-01T05:37:17;2.30;;;1.50;;
27925;SDS011;15267;47.838;12.128;2023-04-01T05:39:43;2.42;;;1.30;;
27925;SDS011;15267;47.838;12.128;2023-04-01T05:42:09;2.05;;;1.40;;
27925;SDS011;15267;47.838;12.128;2023-04-01T05:44:35;1.63;;;1.30;;
27925;SDS011;15267;47.838;12.128;2023-04-01T05:47:02;2.20;;;1.30;;
27925;SDS011;15267;47.838;12.128;2023-04-01T05:49:28;2.17;;;1.15;;
27925;SDS011;15267;47.838;12.128;2023-04-01T05:51:54;2.15;;;1.00;;
27925;SDS011;15267;47.838;12.128;2023-04-01T05:54:20;1.42;;;0.93;;
27925;SDS011;15267;47.838;12.128;2023-04-01T05:56:46;2.45;;;0.80;;
27925;SDS011;15267;47.838;12.128;2023-04-01T05:59:12;1.50;;;0.68;;
27925;SDS011;15267;47.838;12.128;2023-04-01T06:01:38;2.10;;;1.30;;
27925;SDS011;15267;47.838;12.128;2023-04-01T06:04:04;1.73;;;0.60;;
27925;SDS011;15267;47.838;12.128;2023-04-01T06:06:31;1.63;;;0.77;;
27925;SDS011;15267;47.838;12.128;2023-04-01T06:08:58;1.92;;;0.80;;
27925;SDS011;15267;47.838;12.128;2023-04-01T06:11:33;0.57;;;0.50;;
27925;SDS011;15267;47.838;12.128;2023-04-01T06:14:06;1.45;;;0.50;;
27925;SDS011;15267;47.838;12.128;2023-04-01T06:39:39;0.60;;;0.43;;
27925;SDS011;15267;47.838;12.128;2023-04-01T06:47:16;1.00;;;0.60;;
27925;SDS011;15267;47.838;12.128;2023-04-01T06:49:55;0.38;;;0.30;;
27925;SDS011;15267;47.838;12.128;2023-04-01T06:52:38;0.70;;;0.30;;
27925;SDS011;15267;47.838;12.128;2023-04-01T06:57:49;0.73;;;0.40;;
27925;SDS011;15267;47.838;12.128;2023-04-01T07:00:38;1.35;;;0.50;;
27925;SDS011;15267;47.838;12.128;2023-04-01T07:03:10;1.70;;;0.65;;
27925;SDS011;15267;47.838;12.128;2023-04-01T07:05:40;0.73;;;0.55;;
27925;SDS011;15267;47.838;12.128;2023-04-01T07:08:10;1.00;;;0.50;;
27925;SDS011;15267;47.838;12.128;2023-04-01T07:10:45;1.00;;;0.50;;
27925;SDS011;15267;47.838;12.128;2023-04-01T07:13:18;1.95;;;0.75;;
27925;SDS011;15267;47.838;12.128;2023-04-01T07:15:58;2.55;;;0.95;;
27925;SDS011;15267;47.838;12.128;2023-04-01T07:18:30;1.20;;;0.88;;
27925;SDS011;15267;47.838;12.128;2023-04-01T07:20:58;1.70;;;0.70;;
27925;SDS011;15267;47.838;12.128;2023-04-01T07:23:26;1.27;;;0.60;;
27925;SDS011;15267;47.838;12.128;2023-04-01T07:26:04;2.28;;;0.50;;
27925;SDS011;15267;47.838;12.128;2023-04-01T07:28:32;0.63;;;0.45;;
27925;SDS011;15267;47.838;12.128;2023-04-01T07:31:10;1.35;;;0.45;;
27925;SDS011;15267;47.838;12.128;2023-04-01T07:33:44;1.67;;;0.50;;
27925;SDS011;15267;47.838;12.128;2023-04-01T07:41:17;0.80;;;0.38;;
27925;SDS011;15267;47.838;12.128;2023-04-01T07:44:05;0.80;;;0.50;;
27925;SDS011;15267;47.838;12.128;2023-04-01T07:51:42;1.73;;;0.50;;
27925;SDS011;15267;47.838;12.128;2023-04-01T07:57:07;0.55;;;0.20;;
27925;SDS011;15267;47.838;12.128;2023-04-01T07:59:41;0.93;;;0.40;;
27925;SDS011;15267;47.838;12.128;2023-04-01T08:02:16;2.50;;;0.50;;
27925;SDS011;15267;47.838;12.128;2023-04-01T08:07:10;0.85;;;0.40;;
27925;SDS011;15267;47.838;12.128;2023-04-01T08:10:00;1.08;;;0.40;;
27925;SDS011;15267;47.838;12.128;2023-04-01T08:12:31;0.52;;;0.30;;
27925;SDS011;15267;47.838;12.128;2023-04-01T08:19:56;1.25;;;0.40;;
27925;SDS011;15267;47.838;12.128;2023-04-01T08:24:55;0.93;;;0.40;;
27925;SDS011;15267;47.838;12.128;2023-04-01T08:27:26;0.35;;;0.35;;
27925;SDS011;15267;47.838;12.128;2023-04-01T08:32:36;1.60;;;0.50;;
27925;SDS011;15267;47.838;12.128;2023-04-01T08:37:50;0.55;;;0.28;;
27925;SDS011;15267;47.838;12.128;2023-04-01T08:40:39;0.98;;;0.35;;
27925;SDS011;15267;47.838;12.128;2023-04-01T08:43:20;0.82;;;0.30;;
27925;SDS011;15267;47.838;12.128;2023-04-01T08:48:23;0.20;;;0.20;;
27925;SDS011;15267;47.838;12.128;2023-04-01T09:06:37;0.80;;;0.30;;
27925;SDS011;15267;47.838;12.128;2023-04-01T09:09:11;0.28;;;0.20;;
27925;SDS011;15267;47.838;12.128;2023-04-01T09:14:43;0.22;;;0.20;;
27925;SDS011;15267;47.838;12.128;2023-04-01T09:17:24;0.57;;;0.40;;
27925;SDS011;15267;47.838;12.128;2023-04-01T09:22:41;0.20;;;0.20;;
27925;SDS011;15267;47.838;12.128;2023-04-01T09:27:53;0.38;;;0.25;;
27925;SDS011;15267;47.838;12.128;2023-04-01T09:30:40;2.33;;;0.30;;
27925;SDS011;15267;47.838;12.128;2023-04-01T09:33:16;0.28;;;0.28;;
27925;SDS011;15267;47.838;12.128;2023-04-01T09:35:55;0.50;;;0.20;;
27925;SDS011;15267;47.838;12.128;2023-04-01T09:38:28;0.25;;;0.20;;
27925;SDS011;15267;47.838;12.128;2023-04-01T09:40:58;0.45;;;0.13;;
27925;SDS011;15267;47.838;12.128;2023-04-01T09:43:28;0.10;;;0.10;;
27925;SDS011;15267;47.838;12.128;2023-04-01T09:51:36;0.10;;;0.10;;
27925;SDS011;15267;47.838;12.128;2023-04-01T09:54:10;0.30;;;0.25;;
27925;SDS011;15267;47.838;12.128;2023-04-01T10:09:58;1.95;;;0.20;;
27925;SDS011;15267;47.838;12.128;2023-04-01T10:12:40;0.40;;;0.30;;
27925;SDS011;15267;47.838;12.128;2023-04-01T10:15:26;0.20;;;0.20;;
27925;SDS011;15267;47.838;12.128;2023-04-01T10:31:02;0.17;;;0.17;;
27925;SDS011;15267;47.838;12.128;2023-04-01T10:36:22;0.13;;;0.10;;
27925;SDS011;15267;47.838;12.128;2023-04-01T10:41:57;0.30;;;0.30;;
27925;SDS011;15267;47.838;12.128;2023-04-01T10:52:12;0.20;;;0.20;;
27925;SDS011;15267;47.838;12.128;2023-04-01T10:57:47;0.20;;;0.20;;
27925;SDS011;15267;47.838;12.128;2023-04-01T11:00:39;0.30;;;0.30;;
27925;SDS011;15267;47.838;12.128;2023-04-01T11:03:32;0.20;;;0.20;;
27925;SDS011;15267;47.838;12.128;2023-04-01T11:06:12;0.20;;;0.20;;
27925;SDS011;15267;47.838;12.128;2023-04-01T11:13:59;0.47;;;0.20;;
27925;SDS011;15267;47.838;12.128;2023-04-01T11:24:21;0.30;;;0.30;;
27925;SDS011;15267;47.838;12.128;2023-04-01T11:29:41;0.22;;;0.20;;
27925;SDS011;15267;47.838;12.128;2023-04-01T11:34:57;0.40;;;0.30;;
27925;SDS011;15267;47.838;12.128;2023-04-01T11:40:27;0.35;;;0.20;;
27925;SDS011;15267;47.838;12.128;2023-04-01T11:45:27;1.85;;;0.40;;
27925;SDS011;15267;47.838;12.128;2023-04-01T11:50:56;0.63;;;0.20;;
27925;SDS011;15267;47.838;12.128;2023-04-01T11:56:13;0.28;;;0.20;;
27925;SDS011;15267;47.838;12.128;2023-04-01T11:58:43;0.25;;;0.20;;
27925;SDS011;15267;47.838;12.128;2023-04-01T12:04:12;0.65;;;0.22;;
27925;SDS011;15267;47.838;12.128;2023-04-01T12:11:52;1.40;;;0.30;;
27925;SDS011;15267;47.838;12.128;2023-04-01T12:17:15;0.85;;;0.32;;
27925;SDS011;15267;47.838;12.128;2023-04-01T12:19:51;0.25;;;0.22;;
27925;SDS011;15267;47.838;12.128;2023-04-01T12:35:01;1.23;;;0.10;;
27925;SDS011;15267;47.838;12.128;2023-04-01T12:45:32;3.58;;;0.20;;
27925;SDS011;15267;47.838;12.128;2023-04-01T12:50:45;0.55;;;0.20;;
27925;SDS011;15267;47.838;12.128;2023-04-01T12:55:55;0.20;;;0.20;;
27925;SDS011;15267;47.838;12.128;2023-04-01T12:58:33;0.57;;;0.20;;
27925;SDS011;15267;47.838;12.128;2023-04-01T13:01:09;1.45;;;0.20;;
27925;SDS011;15267;47.838;12.128;2023-04-01T13:08:36;0.20;;;0.20;;
27925;SDS011;15267;47.838;12.128;2023-04-01T13:14:03;0.25;;;0.25;;
27925;SDS011;15267;47.838;12.128;2023-04-01T13:16:39;0.30;;;0.22;;
27925;SDS011;15267;47.838;12.128;2023-04-01T13:27:05;0.35;;;0.35;;
27925;SDS011;15267;47.838;12.128;2023-04-01T13:29:36;0.30;;;0.30;;
27925;SDS011;15267;47.838;12.128;2023-04-01T13:34:32;0.45;;;0.30;;
27925;SDS011;15267;47.838;12.128;2023-04-01T13:45:15;0.40;;;0.40;;
27925;SDS011;15267;47.838;12.128;2023-04-01T13:50:20;0.45;;;0.40;;
27925;SDS011;15267;47.838;12.128;2023-04-01T14:03:32;8.32;;;3.58;;
27925;SDS011;15267;47.838;12.128;2023-04-01T14:06:13;2.80;;;1.33;;
27925;SDS011;15267;47.838;12.128;2023-04-01T14:11:15;6.47;;;3.00;;
27925;SDS011;15267;47.838;12.128;2023-04-01T14:16:34;1.27;;;1.10;;
27925;SDS011;15267;47.838;12.128;2023-04-01T14:19:07;0.60;;;0.60;;
27925;SDS011;15267;47.838;12.128;2023-04-01T14:29:09;0.30;;;0.30;;
27925;SDS011;15267;47.838;12.128;2023-04-01T14:31:39;0.50;;;0.30;;
27925;SDS011;15267;47.838;12.128;2023-04-01T14:36:59;0.57;;;0.30;;
27925;SDS011;15267;47.838;12.128;2023-04-01T14:44:43;0.77;;;0.40;;
27925;SDS011;15267;47.838;12.128;2023-04-01T14:47:15;0.57;;;0.50;;
27925;SDS011;15267;47.838;12.128;2023-04-01T14:49:46;2.47;;;0.82;;
27925;SDS011;15267;47.838;12.128;2023-04-01T14:52:17;2.15;;;1.33;;
27925;SDS011;15267;47.838;12.128;2023-04-01T14:54:47;1.20;;;0.90;;
27925;SDS011;15267;47.838;12.128;2023-04-01T14:57:15;1.33;;;0.80;;
27925;SDS011;15267;47.838;12.128;2023-04-01T14:59:51;1.55;;;0.70;;
27925;SDS011;15267;47.838;12.128;2023-04-01T15:04:57;3.65;;;1.17;;
27925;SDS011;15267;47.838;12.128;2023-04-01T15:07:37;3.22;;;1.70;;
27925;SDS011;15267;47.838;12.128;2023-04-01T15:13:12;2.70;;;1.60;;
27925;SDS011;15267;47.838;12.128;2023-04-01T15:15:54;5.43;;;2.80;;
27925;SDS011;15267;47.838;12.128;2023-04-01T15:21:07;3.63;;;1.95;;
27925;SDS011;15267;47.838;12.128;2023-04-01T15:23:43;3.30;;;2.00;;
27925;SDS011;15267;47.838;12.128;2023-04-01T15:26:20;1.40;;;1.30;;
27925;SDS011;15267;47.838;12.128;2023-04-01T15:29:02;3.03;;;1.90;;
27925;SDS011;15267;47.838;12.128;2023-04-01T15:34:32;2.17;;;1.35;;
27925;SDS011;15267;47.838;12.128;2023-04-01T15:40:20;1.33;;;0.90;;
27925;SDS011;15267;47.838;12.128;2023-04-01T15:42:46;1.63;;;1.15;;
27925;SDS011;15267;47.838;12.128;2023-04-01T15:48:01;2.08;;;1.33;;
27925;SDS011;15267;47.838;12.128;2023-04-01T15:50:41;0.80;;;0.60;;
27925;SDS011;15267;47.838;12.128;2023-04-01T15:53:18;2.55;;;1.50;;
27925;SDS011;15267;47.838;12.128;2023-04-01T15:56:08;2.28;;;1.60;;
27925;SDS011;15267;47.838;12.128;2023-04-01T16:03:57;0.88;;;0.88;;
27925;SDS011;15267;47.838;12.128;2023-04-01T16:21:48;4.03;;;3.63;;
27925;SDS011;15267;47.838;12.128;2023-04-01T16:31:46;1.50;;;1.40;;
27925;SDS011;15267;47.838;12.128;2023-04-01T16:36:54;2.85;;;1.90;;
27925;SDS011;15267;47.838;12.128;2023-04-01T16:42:11;3.25;;;2.30;;
27925;SDS011;15267;47.838;12.128;2023-04-01T16:44:54;1.23;;;1.00;;
27925;SDS011;15267;47.838;12.128;2023-04-01T16:47:27;1.40;;;1.10;;
27925;SDS011;15267;47.838;12.128;2023-04-01T16:49:58;0.85;;;0.80;;
27925;SDS011;15267;47.838;12.128;2023-04-01T16:52:36;2.55;;;1.10;;
27925;SDS011;15267;47.838;12.128;2023-04-01T16:55:14;1.73;;;1.13;;
27925;SDS011;15267;47.838;12.128;2023-04-01T16:57:51;1.38;;;0.85;;
27925;SDS011;15267;47.838;12.128;2023-04-01T17:00:22;1.00;;;0.85;;
27925;SDS011;15267;47.838;12.128;2023-04-01T17:02:57;0.95;;;0.80;;
27925;SDS011;15267;47.838;12.128;2023-04-01T17:05:39;2.42;;;1.75;;
27925;SDS011;15267;47.838;12.128;2023-04-01T17:13:40;2.65;;;1.00;;
27925;SDS011;15267;47.838;12.128;2023-04-01T17:26:42;1.27;;;1.17;;
27925;SDS011;15267;47.838;12.128;2023-04-01T17:36:59;2.45;;;1.67;;
27925;SDS011;15267;47.838;12.128;2023-04-01T17:44:59;4.63;;;2.50;;
27925;SDS011;15267;47.838;12.128;2023-04-01T17:47:31;3.17;;;2.40;;
27925;SDS011;15267;47.838;12.128;2023-04-01T17:52:42;4.15;;;2.45;;
27925;SDS011;15267;47.838;12.128;2023-04-01T18:00:57;7.65;;;5.38;;
27925;SDS011;15267;47.838;12.128;2023-04-01T18:03:38;22.77;;;17.55;;
27925;SDS011;15267;47.838;12.128;2023-04-01T18:11:11;10.30;;;7.07;;
27925;SDS011;15267;47.838;12.128;2023-04-01T18:19:01;3.70;;;3.30;;
27925;SDS011;15267;47.838;12.128;2023-04-01T18:21:42;2.65;;;2.00;;
27925;SDS011;15267;47.838;12.128;2023-04-01T18:24:18;5.15;;;3.45;;
27925;SDS011;15267;47.838;12.128;2023-04-01T18:27:12;5.30;;;2.80;;
27925;SDS011;15267;47.838;12.128;2023-04-01T18:29:44;5.25;;;3.15;;
27925;SDS011;15267;47.838;12.128;2023-04-01T18:32:16;1.65;;;1.23;;
27925;SDS011;15267;47.838;12.128;2023-04-01T18:50:23;1.40;;;1.30;;
27925;SDS011;15267;47.838;12.128;2023-04-01T18:52:53;1.63;;;1.00;;
27925;SDS011;15267;47.838;12.128;2023-04-01T18:58:21;1.10;;;0.80;;
27925;SDS011;15267;47.838;12.128;2023-04-01T19:00:47;0.52;;;0.52;;
27925;SDS011;15267;47.838;12.128;2023-04-01T19:05:59;1.00;;;0.90;;
27925;SDS011;15267;47.838;12.128;2023-04-01T19:08:34;1.17;;;1.08;;
27925;SDS011;15267;47.838;12.128;2023-04-01T19:21:37;1.00;;;0.90;;
27925;SDS011;15267;47.838;12.128;2023-04-01T19:27:00;9.15;;;4.72;;
27925;SDS011;15267;47.838;12.128;2023-04-01T19:29:47;6.55;;;2.88;;
27925;SDS011;15267;47.838;12.128;2023-04-01T19:32:36;3.80;;;2.97;;
27925;SDS011;15267;47.838;12.128;2023-04-01T19:35:09;5.07;;;3.28;;
27925;SDS011;15267;47.838;12.128;2023-04-01T19:37:56;8.15;;;5.68;;
27925;SDS011;15267;47.838;12.128;2023-04-01T19:43:31;20.00;;;10.32;;
27925;SDS011;15267;47.838;12.128;2023-04-01T19:56:17;5.00;;;3.50;;
27925;SDS011;15267;47.838;12.128;2023-04-01T19:59:01;10.18;;;6.22;;
27925;SDS011;15267;47.838;12.128;2023-04-01T20:01:34;15.15;;;8.63;;
27925;SDS011;15267;47.838;12.128;2023-04-01T20:04:08;7.28;;;4.38;;
27925;SDS011;15267;47.838;12.128;2023-04-01T20:06:45;1.60;;;1.17;;
27925;SDS011;15267;47.838;12.128;2023-04-01T20:11:46;7.28;;;4.25;;
27925;SDS011;15267;47.838;12.128;2023-04-01T20:14:20;11.32;;;6.07;;
27925;SDS011;15267;47.838;12.128;2023-04-01T20:16:55;10.00;;;5.30;;
27925;SDS011;15267;47.838;12.128;2023-04-01T20:19:34;12.52;;;5.63;;
27925;SDS011;15267;47.838;12.128;2023-04-01T20:22:02;7.18;;;3.50;;
27925;SDS011;15267;47.838;12.128;2023-04-01T20:24:30;23.67;;;11.25;;
27925;SDS011;15267;47.838;12.128;2023-04-01T20:27:00;23.50;;;12.02;;
27925;SDS011;15267;47.838;12.128;2023-04-01T20:29:40;21.73;;;11.52;;
27925;SDS011;15267;47.838;12.128;2023-04-01T20:37:23;9.32;;;5.68;;
27925;SDS011;15267;47.838;12.128;2023-04-01T20:48:02;0.70;;;0.70;;
27925;SDS011;15267;47.838;12.128;2023-04-01T20:50:37;2.42;;;1.08;;
27925;SDS011;15267;47.838;12.128;2023-04-01T21:00:54;1.02;;;0.80;;
27925;SDS011;15267;47.838;12.128;2023-04-01T21:06:08;1.25;;;0.82;;
27925;SDS011;15267;47.838;12.128;2023-04-01T21:08:49;0.60;;;0.60;;
27925;SDS011;15267;47.838;12.128;2023-04-01T21:22:41;1.15;;;0.90;;
27925;SDS011;15267;47.838;12.128;2023-04-01T21:27:45;1.08;;;0.80;;
27925;SDS011;15267;47.838;12.128;2023-04-01T21:38:32;2.88;;;1.25;;
27925;SDS011;15267;47.838;12.128;2023-04-01T21:43:34;4.25;;;3.15;;
27925;SDS011;15267;47.838;12.128;2023-04-01T21:46:26;4.20;;;3.25;;
27925;SDS011;15267;47.838;12.128;2023-04-01T21:57:11;8.25;;;5.43;;
27925;SDS011;15267;47.838;12.128;2023-04-01T21:59:55;5.95;;;4.63;;
27925;SDS011;15267;47.838;12.128;2023-04-01T22:07:31;7.10;;;4.97;;
27925;SDS011;15267;47.838;12.128;2023-04-01T22:12:35;13.63;;;9.13;;
27925;SDS011;15267;47.838;12.128;2023-04-01T22:17:53;17.85;;;10.60;;
27925;SDS011;15267;47.838;12.128;2023-04-01T22:20:28;14.48;;;9.88;;
27925;SDS011;15267;47.838;12.128;2023-04-01T22:23:01;16.48;;;11.40;;
27925;SDS011;15267;47.838;12.128;2023-04-01T22:25:36;17.42;;;11.95;;
27925;SDS011;15267;47.838;12.128;2023-04-01T22:28:05;16.83;;;11.85;;
27925;SDS011;15267;47.838;12.128;2023-04-01T22:30:33;18.45;;;12.52;;
27925;SDS011;15267;47.838;12.128;2023-04-01T22:35:36;17.92;;;12.18;;
27925;SDS011;15267;47.838;12.128;2023-04-01T22:38:14;20.85;;;13.98;;
27925;SDS011;15267;47.838;12.128;2023-04-01T22:43:28;18.75;;;12.00;;
27925;SDS011;15267;47.838;12.128;2023-04-01T22:48:26;15.05;;;9.25;;
27925;SDS011;15267;47.838;12.128;2023-04-01T22:51:03;28.27;;;19.25;;
27925;SDS011;15267;47.838;12.128;2023-04-01T22:55:57;8.57;;;5.75;;
27925;SDS011;15267;47.838;12.128;2023-04-01T22:58:26;2.72;;;1.75;;
27925;SDS011;15267;47.838;12.128;2023-04-01T23:00:56;2.95;;;1.50;;
27925;SDS011;15267;47.838;12.128;2023-04-01T23:05:57;2.50;;;1.05;;
27925;SDS011;15267;47.838;12.128;2023-04-01T23:10:53;1.30;;;0.90;;
27925;SDS011;15267;47.838;12.128;2023-04-01T23:13:26;1.38;;;0.90;;
27925;SDS011;15267;47.838;12.128;2023-04-01T23:15:53;1.73;;;0.90;;
27925;SDS011;15267;47.838;12.128;2023-04-01T23:18:31;2.05;;;0.70;;
27925;SDS011;15267;47.838;12.128;2023-04-01T23:21:10;0.88;;;0.57;;
27925;SDS011;15267;47.838;12.128;2023-04-01T23:26:10;0.90;;;0.80;;
27925;SDS011;15267;47.838;12.128;2023-04-01T23:34:33;1.10;;;0.60;;